Time;durP1;ratioP1;P1;durP2;ratioP2;P2;SDS_P1;SDS_P2;PMS_P1;PMS_P2;Temp;Humidity;BMP_temperature;BMP_pressure;BME280_temperature;BME280_humidity;BME280_pressure;Samples;Min_cycle;Max_cycle;Signal;HPM_P1;HPM_P2
2022/08/10 00:00:22;;;;;;;3.05;1.55;;;;;;;18.60;68.30;96930.69;5070841;28;20384;-76
2022/08/10 00:02:49;;;;;;;3.78;1.70;;;;;;;18.51;68.76;96929.19;5089723;28;20047;-75
2022/08/10 00:05:15;;;;;;;5.28;1.90;;;;;;;18.45;69.09;96929.97;5090733;28;20043;-76
2022/08/10 00:07:41;;;;;;;4.93;1.40;;;;;;;18.43;69.67;96932.00;5079198;28;20036;-76
2022/08/10 00:10:07;;;;;;;4.07;1.63;;;;;;;18.47;69.44;96930.59;5086305;28;20036;-76
2022/08/10 00:12:33;;;;;;;3.50;1.50;;;;;;;18.21;70.73;96933.81;5086426;28;20120;-76
2022/08/10 00:14:59;;;;;;;4.43;1.60;;;;;;;18.23;71.50;96937.97;5088808;28;20096;-76
2022/08/10 00:17:25;;;;;;;4.80;1.83;;;;;;;18.20;72.11;96940.19;5089402;28;20108;-76
2022/08/10 00:19:51;;;;;;;4.38;1.52;;;;;;;18.16;72.12;96931.75;5087758;28;20028;-76
2022/08/10 00:22:17;;;;;;;2.70;1.70;;;;;;;18.10;72.63;96932.50;5089588;28;20366;-76
2022/08/10 00:24:42;;;;;;;5.18;1.70;;;;;;;18.16;72.04;96941.56;5089460;28;20485;-76
2022/08/10 00:27:08;;;;;;;5.00;1.73;;;;;;;18.04;72.83;96931.44;5072846;28;20032;-75
2022/08/10 00:29:34;;;;;;;5.38;1.60;;;;;;;17.93;73.70;96934.56;5090190;28;20093;-75
2022/08/10 00:31:59;;;;;;;2.95;1.45;;;;;;;17.93;74.12;96931.09;5091377;28;20040;-75
2022/08/10 00:34:30;;;;;;;3.80;1.50;;;;;;;17.92;74.07;96929.47;5074706;28;20048;-75
2022/08/10 00:36:57;;;;;;;2.35;1.50;;;;;;;17.83;74.83;96928.72;5070831;28;20032;-75
2022/08/10 00:39:23;;;;;;;4.03;1.65;;;;;;;17.83;75.28;96923.41;5081100;28;20024;-75
2022/08/10 00:41:49;;;;;;;4.65;1.58;;;;;;;17.85;74.88;96924.06;5073328;28;20035;-75
2022/08/10 00:44:14;;;;;;;5.35;1.73;;;;;;;17.85;74.64;96922.22;5083609;28;20023;-75
2022/08/10 00:46:40;;;;;;;3.03;1.73;;;;;;;17.87;74.85;96922.03;5073697;28;20138;-75
2022/08/10 00:49:06;;;;;;;5.25;1.55;;;;;;;17.88;75.20;96926.34;5092708;28;20020;-74
2022/08/10 00:51:32;;;;;;;3.55;1.70;;;;;;;17.82;75.57;96924.44;5074300;28;20027;-75
2022/08/10 00:53:58;;;;;;;3.90;2.13;;;;;;;17.71;76.13;96925.72;5089310;28;20044;-76
2022/08/10 00:56:24;;;;;;;6.22;2.22;;;;;;;17.77;75.59;96919.69;5084079;28;20038;-76
2022/08/10 00:58:49;;;;;;;3.72;1.90;;;;;;;17.67;76.57;96919.09;5085994;28;20520;-75
2022/08/10 01:01:15;;;;;;;2.80;1.50;;;;;;;17.58;77.50;96922.91;5065145;28;20759;-76
2022/08/10 01:03:41;;;;;;;2.40;1.50;;;;;;;17.62;77.14;96913.53;5081443;28;20032;-75
2022/08/10 01:06:40;;;;;;;2.40;1.70;;;;;;;17.64;76.46;96914.19;5088100;28;20036;-75
2022/08/10 01:09:27;;;;;;;4.35;1.70;;;;;;;17.56;77.33;96907.13;5088394;28;20097;-76
2022/08/10 01:12:09;;;;;;;7.20;1.70;;;;;;;17.52;77.64;96903.19;5088362;28;20472;-76
2022/08/10 01:15:00;;;;;;;2.60;1.67;;;;;;;17.49;78.17;96913.38;5088405;28;20517;-76
2022/08/10 01:17:42;;;;;;;3.00;1.60;;;;;;;17.42;78.76;96918.59;5101899;28;20034;-76
2022/08/10 01:20:14;;;;;;;5.05;1.92;;;;;;;17.35;79.27;96915.03;5085443;28;20028;-76
2022/08/10 01:22:51;;;;;;;3.00;1.42;;;;;;;17.25;80.42;96911.84;5088273;28;20047;-76
2022/08/10 01:25:46;;;;;;;4.40;1.90;;;;;;;17.19;80.79;96908.09;5067062;28;20043;-76
2022/08/10 01:28:40;;;;;;;4.30;1.77;;;;;;;17.17;81.55;96910.13;5088007;28;20024;-75
2022/08/10 01:31:08;;;;;;;3.10;1.90;;;;;;;17.07;82.59;96904.22;5085038;28;20169;-76
2022/08/10 01:33:52;;;;;;;3.95;1.63;;;;;;;17.01;82.61;96908.47;5071653;28;20123;-76
2022/08/10 01:36:33;;;;;;;4.57;1.77;;;;;;;17.05;82.43;96903.59;5071200;28;20558;-76
2022/08/10 01:39:02;;;;;;;4.10;1.65;;;;;;;17.00;82.85;96909.47;5088066;28;20028;-76
2022/08/10 01:41:35;;;;;;;4.85;1.80;;;;;;;17.03;82.74;96906.44;5089394;28;20035;-76
2022/08/10 01:44:17;;;;;;;4.15;1.90;;;;;;;16.99;83.58;96914.97;5066119;28;20032;-76
2022/08/10 01:46:49;;;;;;;3.33;1.65;;;;;;;16.92;84.01;96906.91;5067748;28;20508;-76
2022/08/10 01:49:17;;;;;;;3.75;1.70;;;;;;;16.89;84.60;96907.25;5088512;28;20060;-76
2022/08/10 01:51:49;;;;;;;4.03;1.88;;;;;;;16.93;84.44;96905.88;5088165;28;20825;-76
2022/08/10 01:54:19;;;;;;;3.30;1.85;;;;;;;16.84;84.70;96904.34;5087373;28;20027;-76
2022/08/10 01:56:49;;;;;;;2.80;1.70;;;;;;;16.86;84.88;96905.78;5067878;28;20032;-76
2022/08/10 01:59:21;;;;;;;4.03;1.92;;;;;;;16.75;85.61;96908.06;5086807;28;20071;-76
2022/08/10 02:01:54;;;;;;;6.13;1.77;;;;;;;16.77;85.58;96908.69;5087355;28;20035;-76
2022/08/10 02:04:24;;;;;;;5.05;1.73;;;;;;;16.71;86.26;96907.59;5089614;28;20032;-76
2022/08/10 02:06:53;;;;;;;2.50;1.90;;;;;;;16.68;86.82;96910.59;5072829;28;20035;-76
2022/08/10 02:09:26;;;;;;;3.30;1.80;;;;;;;16.71;86.54;96910.25;5089723;28;20036;-76
2022/08/10 02:11:55;;;;;;;3.15;1.73;;;;;;;16.65;86.77;96910.97;5090854;28;20048;-76
2022/08/10 02:14:22;;;;;;;3.33;1.53;;;;;;;16.67;87.38;96915.09;5090473;28;20162;-76
2022/08/10 02:16:50;;;;;;;3.42;1.65;;;;;;;16.65;87.49;96916.25;5088333;28;20127;-76
2022/08/10 02:19:20;;;;;;;2.87;1.73;;;;;;;16.66;87.41;96913.41;5073292;28;20036;-75
2022/08/10 02:21:48;;;;;;;3.77;2.00;;;;;;;16.68;86.86;96910.59;5087214;28;21587;-75
2022/08/10 02:24:16;;;;;;;3.13;1.83;;;;;;;16.57;87.80;96908.38;5087174;28;20043;-75
2022/08/10 02:26:44;;;;;;;3.43;1.60;;;;;;;16.47;88.99;96913.94;5090103;28;20081;-76
2022/08/10 02:29:13;;;;;;;5.37;1.83;;;;;;;16.40;88.90;96910.38;5088317;28;20467;-76
2022/08/10 02:31:41;;;;;;;6.53;2.03;;;;;;;16.45;89.66;96905.31;5086229;28;20478;-76
2022/08/10 02:34:10;;;;;;;3.93;2.00;;;;;;;16.44;89.15;96907.16;5080669;28;20103;-76
2022/08/10 02:36:42;;;;;;;3.93;1.70;;;;;;;16.45;88.90;96900.84;5088600;28;20032;-76
2022/08/10 02:39:08;;;;;;;3.70;1.80;;;;;;;16.42;88.58;96911.81;5092434;28;20028;-76
2022/08/10 02:41:40;;;;;;;2.57;1.80;;;;;;;16.41;89.17;96906.69;5092568;28;20139;-76
2022/08/10 02:44:21;;;;;;;3.57;1.80;;;;;;;16.35;88.98;96910.06;5092450;28;20530;-76
2022/08/10 02:47:01;;;;;;;4.10;2.20;;;;;;;16.24;90.15;96906.00;5088502;28;20036;-76
2022/08/10 02:49:33;;;;;;;4.00;1.90;;;;;;;16.26;90.65;96901.31;5087995;28;20032;-76
2022/08/10 02:52:04;;;;;;;2.92;2.05;;;;;;;16.31;90.06;96908.78;5089370;28;20024;-75
2022/08/10 02:54:34;;;;;;;3.63;1.93;;;;;;;16.22;90.22;96902.69;5092405;28;20024;-75
2022/08/10 02:57:15;;;;;;;4.73;1.90;;;;;;;16.22;90.46;96906.16;5089476;28;20047;-75
2022/08/10 02:59:48;;;;;;;3.00;1.70;;;;;;;16.24;89.98;96901.53;5086791;28;20108;-76
2022/08/10 03:02:24;;;;;;;3.78;1.83;;;;;;;16.13;90.92;96907.25;5083547;28;20093;-76
2022/08/10 03:04:53;;;;;;;4.63;1.77;;;;;;;16.19;90.84;96901.22;5067531;28;20519;-75
2022/08/10 03:07:21;;;;;;;3.60;1.87;;;;;;;16.17;91.25;96900.59;5090435;28;20896;-76
2022/08/10 03:09:49;;;;;;;3.50;1.83;;;;;;;16.03;91.95;96896.06;5086219;28;20040;-76
2022/08/10 03:12:16;;;;;;;3.90;1.90;;;;;;;16.09;91.51;96900.63;5072293;28;20458;-75
2022/08/10 03:14:43;;;;;;;4.23;1.90;;;;;;;16.05;91.91;96899.34;5091224;28;20035;-75
2022/08/10 03:17:11;;;;;;;5.13;2.43;;;;;;;15.89;93.06;96902.09;5067348;28;20032;-76
2022/08/10 03:19:38;;;;;;;5.43;2.50;;;;;;;15.84;93.65;96899.16;5088643;28;20066;-75
2022/08/10 03:22:04;;;;;;;5.17;1.90;;;;;;;15.67;95.02;96906.41;5088577;28;20036;-75
2022/08/10 03:24:31;;;;;;;3.87;2.10;;;;;;;15.69;95.25;96905.25;5089740;28;20020;-74
2022/08/10 03:26:57;;;;;;;3.90;2.20;;;;;;;15.68;95.17;96911.53;5087015;28;20043;-74
2022/08/10 03:29:24;;;;;;;5.60;2.03;;;;;;;15.71;95.16;96905.03;5089274;28;20397;-74
2022/08/10 03:31:50;;;;;;;3.03;1.77;;;;;;;15.72;94.65;96910.16;5072321;28;20090;-74
2022/08/10 03:34:18;;;;;;;4.90;1.67;;;;;;;15.67;95.71;96911.72;5064495;28;20488;-74
2022/08/10 03:36:44;;;;;;;6.60;2.13;;;;;;;15.60;95.89;96911.53;5081455;28;20043;-74
2022/08/10 03:39:12;;;;;;;3.53;2.13;;;;;;;15.55;95.84;96913.88;5073129;28;20123;-74
2022/08/10 03:41:42;;;;;;;3.10;2.00;;;;;;;15.68;95.90;96913.34;5092121;28;20107;-74
2022/08/10 03:44:11;;;;;;;3.97;1.70;;;;;;;15.62;96.52;96906.88;5065597;28;20036;-74
2022/08/10 03:46:40;;;;;;;4.00;1.80;;;;;;;15.55;96.81;96908.56;5083422;28;20032;-74
2022/08/10 03:49:08;;;;;;;4.27;1.70;;;;;;;15.44;97.36;96911.63;5083634;28;20043;-74
2022/08/10 03:51:34;;;;;;;3.37;1.93;;;;;;;15.38;98.40;96913.13;5088963;28;20097;-74
2022/08/10 03:54:01;;;;;;;3.40;1.80;;;;;;;15.36;98.06;96909.00;5070479;28;20072;-74
2022/08/10 03:56:28;;;;;;;5.67;1.90;;;;;;;15.34;98.83;96909.19;5081752;28;20736;-74
2022/08/10 03:58:55;;;;;;;5.27;2.07;;;;;;;15.29;99.03;96909.72;5085227;28;20032;-74
2022/08/10 04:01:21;;;;;;;4.87;1.93;;;;;;;15.22;99.45;96911.38;5088421;28;20030;-74
2022/08/10 04:03:47;;;;;;;5.47;2.00;;;;;;;15.31;98.62;96910.34;5086607;28;20452;-74
2022/08/10 04:06:13;;;;;;;5.37;1.90;;;;;;;15.39;98.42;96908.66;5088744;28;20063;-74
2022/08/10 04:08:42;;;;;;;3.67;1.90;;;;;;;15.39;98.10;96913.94;5090220;28;20028;-74
2022/08/10 04:11:09;;;;;;;5.03;2.37;;;;;;;15.38;98.15;96915.78;5082305;28;20484;-74
2022/08/10 04:13:36;;;;;;;4.57;1.90;;;;;;;15.37;98.74;96916.78;5089852;28;20035;-74
2022/08/10 04:16:05;;;;;;;5.43;2.10;;;;;;;15.38;98.29;96928.22;5089349;28;20032;-74
2022/08/10 04:18:32;;;;;;;4.33;1.80;;;;;;;15.41;97.92;96923.38;5089588;28;22008;-74
2022/08/10 04:21:11;;;;;;;4.37;2.43;;;;;;;15.29;98.60;96924.75;5083850;28;20035;-74
2022/08/10 04:23:42;;;;;;;3.50;1.90;;;;;;;15.11;100.00;96927.66;5059975;28;20025;-74
2022/08/10 04:26:09;;;;;;;3.87;2.03;;;;;;;15.14;100.00;96935.25;5084758;28;20024;-74
2022/08/10 04:28:35;;;;;;;4.23;1.90;;;;;;;15.43;98.55;96931.19;5067399;28;20105;-73
2022/08/10 04:31:04;;;;;;;4.17;2.20;;;;;;;15.40;98.01;96929.69;5082346;28;20397;-73
2022/08/10 04:33:32;;;;;;;3.93;2.27;;;;;;;15.41;98.25;96933.16;5062365;28;20028;-73
2022/08/10 04:35:59;;;;;;;3.30;2.00;;;;;;;15.30;98.12;96931.72;5068426;28;20467;-73
2022/08/10 04:38:28;;;;;;;5.97;2.40;;;;;;;15.46;97.62;96933.47;5084782;28;20031;-73
2022/08/10 04:40:55;;;;;;;3.33;2.03;;;;;;;15.47;97.30;96932.50;5085154;28;20047;-73
2022/08/10 04:43:21;;;;;;;2.73;1.80;;;;;;;15.52;96.96;96938.91;5078659;28;20032;-73
2022/08/10 04:45:46;;;;;;;4.40;1.70;;;;;;;15.50;97.22;96932.97;5085296;28;20036;-73
2022/08/10 04:48:12;;;;;;;3.23;1.90;;;;;;;15.53;96.26;96942.41;5080156;28;20036;-74
2022/08/10 04:50:38;;;;;;;4.90;2.10;;;;;;;15.53;96.66;96934.44;5080647;28;20470;-74
2022/08/10 04:53:04;;;;;;;3.57;1.60;;;;;;;15.91;96.08;96929.28;5086766;28;20084;-77
2022/08/10 04:55:30;;;;;;;4.70;2.03;;;;;;;16.01;93.37;96935.19;5082739;28;20035;-73
2022/08/10 04:57:55;;;;;;;3.70;2.03;;;;;;;15.98;93.13;96936.38;5063030;28;20451;-73
2022/08/10 05:00:21;;;;;;;5.23;1.93;;;;;;;16.02;92.96;96937.66;5085192;28;20035;-73
2022/08/10 05:02:47;;;;;;;4.53;2.20;;;;;;;15.95;93.75;96936.72;5084609;28;20107;-73
2022/08/10 05:05:12;;;;;;;7.40;1.90;;;;;;;15.96;93.04;96940.19;5086693;28;20635;-74
2022/08/10 05:07:38;;;;;;;4.10;1.90;;;;;;;15.98;92.42;96941.66;5084353;28;20046;-73
2022/08/10 05:10:04;;;;;;;5.00;1.90;;;;;;;16.13;92.37;96940.91;5086135;28;20032;-73
2022/08/10 05:12:30;;;;;;;3.87;2.00;;;;;;;16.27;90.55;96948.13;5085137;28;20032;-73
2022/08/10 05:14:56;;;;;;;11.50;3.37;;;;;;;16.43;89.84;96949.81;5082606;28;20036;-75
2022/08/10 05:17:22;;;;;;;4.37;1.87;;;;;;;16.68;87.56;96948.59;5081049;28;20036;-73
2022/08/10 05:19:48;;;;;;;4.80;1.70;;;;;;;16.67;86.57;96939.00;5083697;28;20043;-73
2022/08/10 05:22:14;;;;;;;3.67;1.70;;;;;;;16.74;86.08;96944.41;5075744;28;20051;-74
2022/08/10 05:24:39;;;;;;;5.83;1.80;;;;;;;16.88;85.56;96940.16;5078979;28;20044;-73
2022/08/10 05:27:05;;;;;;;4.57;1.80;;;;;;;17.15;83.92;96938.69;5084635;28;20024;-73
2022/08/10 05:29:32;;;;;;;4.33;1.90;;;;;;;17.25;83.45;96927.78;5086803;28;20107;-73
2022/08/10 05:31:59;;;;;;;3.63;1.80;;;;;;;17.33;82.58;96920.53;5084107;28;20077;-73
2022/08/10 05:34:27;;;;;;;2.57;1.60;;;;;;;17.75;81.11;96928.81;5084096;28;20115;-74
2022/08/10 05:36:54;;;;;;;4.50;1.90;;;;;;;18.09;78.19;96931.69;5066044;28;20043;-74
2022/08/10 05:39:22;;;;;;;3.22;1.83;;;;;;;18.02;77.97;96927.31;5087408;28;20031;-74
2022/08/10 05:41:52;;;;;;;2.67;1.80;;;;;;;18.16;76.76;96925.59;5086847;28;20070;-73
2022/08/10 05:44:21;;;;;;;4.30;1.87;;;;;;;18.20;76.95;96922.34;5087721;28;20066;-73
2022/08/10 05:46:48;;;;;;;3.22;1.80;;;;;;;18.73;73.91;96919.38;5085150;28;20032;-74
2022/08/10 05:49:14;;;;;;;3.78;1.90;;;;;;;18.54;74.28;96931.47;5070345;28;20092;-75
2022/08/10 05:51:40;;;;;;;3.83;1.90;;;;;;;18.65;73.34;96924.81;5083475;28;20439;-76
2022/08/10 05:54:13;;;;;;;6.95;1.90;;;;;;;18.89;72.41;96927.06;5084935;28;20035;-74
2022/08/10 05:56:40;;;;;;;;;;;;;;;18.79;72.49;96916.75;5084710;28;20089;-74
2022/08/10 05:59:06;;;;;;;4.85;1.88;;;;;;;18.55;73.23;96930.47;5085229;28;19945;-74
2022/08/10 06:01:33;;;;;;;3.00;1.63;;;;;;;19.27;69.86;96929.34;5071003;28;20461;-74
2022/08/10 06:04:01;;;;;;;3.33;1.83;;;;;;;19.19;70.62;96933.00;5071958;28;20170;-75
2022/08/10 06:06:31;;;;;;;2.88;1.77;;;;;;;19.74;67.97;96922.41;5089138;28;20120;-74
2022/08/10 06:08:58;;;;;;;3.70;1.80;;;;;;;19.85;66.87;96924.50;5085393;28;20028;-74
2022/08/10 06:11:28;;;;;;;3.65;1.67;;;;;;;19.94;66.16;96920.63;5093045;28;20111;-74
2022/08/10 06:16:42;;;;;;;3.83;1.80;;;;;;;20.04;65.53;96927.41;5084646;28;20131;-74
2022/08/10 06:19:10;;;;;;;3.75;1.58;;;;;;;20.33;63.64;96921.72;5083332;28;20801;-74
2022/08/10 06:21:37;;;;;;;3.60;1.65;;;;;;;20.56;62.02;96924.03;5084278;28;20028;-74
2022/08/10 06:24:06;;;;;;;3.50;1.60;;;;;;;21.11;59.38;96921.09;5085727;28;20553;-74
2022/08/10 06:26:32;;;;;;;5.13;1.90;;;;;;;21.05;59.18;96929.94;5087944;28;20035;-74
2022/08/10 06:29:06;;;;;;;3.05;1.58;;;;;;;21.17;58.76;96931.78;5088510;28;20036;-75
2022/08/10 06:31:37;;;;;;;6.75;1.90;;;;;;;21.30;57.44;96930.94;5085821;28;20112;-74
2022/08/10 06:34:04;;;;;;;6.20;1.75;;;;;;;21.05;57.31;96929.94;5084364;28;20024;-74
2022/08/10 06:36:30;;;;;;;3.45;1.73;;;;;;;22.13;54.22;96924.84;5088938;28;20392;-74
2022/08/10 06:38:56;;;;;;;6.45;1.60;;;;;;;21.45;55.32;96921.88;5078366;28;20134;-75
2022/08/10 06:41:24;;;;;;;2.90;1.63;;;;;;;21.94;54.87;96920.44;5088621;28;20363;-75
2022/08/10 06:44:04;;;;;;;5.40;1.88;;;;;;;22.20;53.16;96923.00;5088987;28;20027;-75
2022/08/10 06:46:35;;;;;;;7.88;1.95;;;;;;;22.45;52.37;96927.56;5067833;28;20389;-74
2022/08/10 06:49:03;;;;;;;6.15;2.05;;;;;;;22.07;52.92;96920.34;5070621;28;20039;-74
2022/08/10 06:51:32;;;;;;;2.67;1.52;;;;;;;22.03;52.97;96913.75;5084386;28;20028;-75
2022/08/10 06:54:03;;;;;;;3.55;1.55;;;;;;;22.41;51.30;96929.84;5099290;28;20136;-74
2022/08/10 06:56:33;;;;;;;5.13;1.48;;;;;;;22.06;53.02;96922.19;5088297;28;20056;-75
2022/08/10 06:59:09;;;;;;;4.45;1.45;;;;;;;22.71;51.22;96922.00;5086609;28;20036;-75
2022/08/10 07:01:38;;;;;;;5.38;1.80;;;;;;;23.45;47.99;96924.81;5085992;28;20029;-74
2022/08/10 07:04:33;;;;;;;4.70;1.60;;;;;;;23.82;47.29;96919.44;5087555;28;20039;-76
2022/08/10 07:07:03;;;;;;;3.92;1.50;;;;;;;23.63;46.88;96926.66;5083294;28;20105;-74
2022/08/10 07:09:31;;;;;;;7.38;1.55;;;;;;;23.73;45.59;96911.69;5020752;28;20876;-76
2022/08/10 07:11:58;;;;;;;6.68;1.95;;;;;;;23.55;46.20;96914.38;5046744;28;20505;-74
2022/08/10 07:14:26;;;;;;;4.30;1.90;;;;;;;23.19;46.71;96916.00;5050791;28;20119;-74
2022/08/10 07:16:53;;;;;;;7.03;1.60;;;;;;;23.65;45.79;96919.22;5045792;28;20512;-75
2022/08/10 07:19:20;;;;;;;5.72;1.63;;;;;;;24.64;44.58;96914.34;5046982;28;20468;-76
2022/08/10 07:21:47;;;;;;;4.35;1.67;;;;;;;24.86;42.73;96923.47;5046653;28;20151;-75
2022/08/10 07:24:15;;;;;;;6.28;1.92;;;;;;;23.86;44.86;96916.06;5047643;28;20055;-74
2022/08/10 07:26:48;;;;;;;3.72;1.63;;;;;;;24.31;43.88;96914.81;5046663;28;20024;-74
2022/08/10 07:29:17;;;;;;;3.05;1.60;;;;;;;25.05;42.31;96907.22;5049308;28;20047;-74
2022/08/10 07:31:43;;;;;;;3.35;1.65;;;;;;;24.90;42.42;96921.16;5071452;28;20040;-74
2022/08/10 07:34:13;;;;;;;3.92;1.42;;;;;;;24.86;42.77;96914.59;5087062;28;20055;-74
2022/08/10 07:36:41;;;;;;;3.67;1.42;;;;;;;25.68;40.63;96911.00;5084808;28;20153;-75
2022/08/10 07:39:09;;;;;;;3.40;1.40;;;;;;;25.97;40.12;96923.47;5080920;28;20035;-74
2022/08/10 07:41:40;;;;;;;5.32;1.90;;;;;;;25.88;40.08;96913.31;5082500;28;20027;-75
2022/08/10 07:44:07;;;;;;;5.07;1.90;;;;;;;26.24;38.79;96912.13;5084405;28;20039;-76
2022/08/10 07:46:37;;;;;;;3.15;1.60;;;;;;;25.86;39.57;96914.38;5082533;28;20031;-75
2022/08/10 07:49:08;;;;;;;4.47;1.70;;;;;;;26.33;38.88;96911.47;5086792;28;20032;-75
2022/08/10 07:51:36;;;;;;;3.55;1.77;;;;;;;26.40;37.84;96914.03;5083414;28;20047;-75
2022/08/10 07:54:04;;;;;;;3.95;1.58;;;;;;;26.88;37.19;96915.38;5080670;28;20028;-75
2022/08/10 07:56:33;;;;;;;3.35;1.45;;;;;;;25.92;39.02;96915.28;5081291;28;20020;-74
2022/08/10 07:59:04;;;;;;;10.52;1.85;;;;;;;25.55;39.27;96923.72;5083021;28;20025;-74
2022/08/10 08:01:33;;;;;;;6.20;1.50;;;;;;;26.70;38.22;96921.03;5074360;28;20023;-75
2022/08/10 08:04:00;;;;;;;3.92;1.25;;;;;;;26.83;37.56;96920.72;5065225;28;20044;-75
2022/08/10 08:06:29;;;;;;;5.60;1.33;;;;;;;26.46;37.92;96920.31;5063219;28;20162;-75
2022/08/10 08:08:57;;;;;;;3.33;1.55;;;;;;;25.82;39.02;96917.78;5062909;28;20097;-74
2022/08/10 08:11:26;;;;;;;5.90;1.42;;;;;;;25.89;38.91;96907.72;5063633;28;20020;-74
2022/08/10 08:13:53;;;;;;;5.80;1.50;;;;;;;25.80;38.75;96914.53;5063175;28;20028;-74
2022/08/10 08:16:21;;;;;;;5.40;1.45;;;;;;;25.33;39.19;96918.13;5064066;28;20151;-75
2022/08/10 08:18:50;;;;;;;5.03;2.05;;;;;;;25.39;39.67;96921.75;5060500;28;20366;-74
2022/08/10 08:21:16;;;;;;;6.05;1.50;;;;;;;25.55;39.64;96918.31;5057864;28;20169;-77
2022/08/10 08:23:42;;;;;;;4.47;1.73;;;;;;;26.40;37.91;96908.63;5034217;28;20485;-75
2022/08/10 08:26:10;;;;;;;5.60;1.50;;;;;;;26.33;38.24;96913.38;5012393;28;20027;-74
2022/08/10 08:28:36;;;;;;;5.60;1.77;;;;;;;26.48;36.82;96910.94;5024709;28;20032;-74
2022/08/10 08:31:03;;;;;;;3.88;1.45;;;;;;;26.61;35.99;96917.09;5058990;28;20027;-74
2022/08/10 08:33:30;;;;;;;6.47;1.30;;;;;;;26.04;37.53;96929.53;5069170;28;22072;-74
2022/08/10 08:35:57;;;;;;;4.57;1.52;;;;;;;25.71;38.33;96926.69;5072847;28;20032;-74
2022/08/10 08:38:24;;;;;;;4.05;1.75;;;;;;;25.68;38.80;96916.41;5081159;28;20040;-75
2022/08/10 08:41:02;;;;;;;4.00;1.70;;;;;;;27.00;36.38;96912.59;5079527;28;20039;-74
2022/08/10 08:43:37;;;;;;;5.65;1.70;;;;;;;27.52;35.71;96911.44;5079999;28;20444;-74
2022/08/10 08:46:27;;;;;;;2.00;1.30;;;;;;;26.68;34.10;96912.34;5081008;28;20040;-74
2022/08/10 08:48:56;;;;;;;2.97;1.52;;;;;;;26.28;34.00;96908.69;5082070;28;20028;-74
2022/08/10 08:51:39;;;;;;;3.92;1.40;;;;;;;26.14;34.47;96907.34;5080868;28;20057;-74
2022/08/10 08:54:22;;;;;;;6.25;1.35;;;;;;;26.98;33.70;96914.72;5085425;28;20512;-74
2022/08/10 08:57:09;;;;;;;2.75;1.55;;;;;;;26.58;33.90;96922.97;5064683;28;20043;-75
2022/08/10 08:59:52;;;;;;;3.63;1.40;;;;;;;26.14;34.65;96911.94;5080029;28;20028;-74
2022/08/10 09:02:38;;;;;;;12.95;2.15;;;;;;;27.16;33.17;96913.66;5084325;28;20064;-74
2022/08/10 09:05:07;;;;;;;9.30;1.75;;;;;;;27.22;33.42;96907.25;5081767;28;20043;-74
2022/08/10 09:07:55;;;;;;;5.10;1.55;;;;;;;27.98;32.09;96895.81;5084256;28;20028;-74
2022/08/10 09:10:20;;;;;;;5.13;1.27;;;;;;;28.23;31.62;96906.88;5081281;28;20024;-75
2022/08/10 09:12:58;;;;;;;6.65;2.80;;;;;;;28.35;31.14;96904.00;5084581;28;20563;-74
2022/08/10 09:15:52;;;;;;;4.88;1.40;;;;;;;28.99;30.28;96903.19;5080663;28;20063;-74
2022/08/10 09:18:27;;;;;;;7.10;1.45;;;;;;;28.60;30.73;96903.44;5077831;28;20070;-74
2022/08/10 09:21:16;;;;;;;3.05;1.40;;;;;;;28.49;30.29;96899.03;5081366;28;20054;-74
2022/08/10 09:24:04;;;;;;;8.80;1.75;;;;;;;28.34;30.00;96897.78;5078096;28;20039;-74
2022/08/10 09:26:51;;;;;;;3.95;1.67;;;;;;;28.35;29.51;96899.41;5073719;28;20130;-74
2022/08/10 09:29:28;;;;;;;8.07;1.40;;;;;;;27.61;30.93;96912.66;5085106;28;20028;-74
2022/08/10 09:32:25;;;;;;;4.97;1.20;;;;;;;28.96;29.23;96911.84;5079462;28;20396;-75
2022/08/10 09:35:15;;;;;;;3.13;1.38;;;;;;;28.56;29.54;96903.13;5087879;28;20050;-75
2022/08/10 09:37:46;;;;;;;2.70;1.40;;;;;;;28.47;29.37;96909.28;5086628;28;20037;-75
2022/08/10 09:40:21;;;;;;;4.43;1.45;;;;;;;29.17;28.46;96893.84;5090280;28;20161;-74
2022/08/10 09:42:49;;;;;;;2.42;1.30;;;;;;;30.06;28.07;96885.59;5082962;28;20028;-75
2022/08/10 09:45:29;;;;;;;3.30;1.50;;;;;;;30.51;27.24;96886.75;5085250;28;20064;-75
2022/08/10 09:48:01;;;;;;;2.30;1.27;;;;;;;29.48;28.57;96900.28;5082865;28;20040;-74
2022/08/10 09:50:39;;;;;;;6.40;1.73;;;;;;;27.13;32.60;96903.34;5071665;28;20086;-74
2022/08/10 09:53:07;;;;;;;4.47;1.40;;;;;;;27.50;32.24;96898.19;5085585;28;20679;-75
2022/08/10 09:56:06;;;;;;;2.25;1.23;;;;;;;29.24;28.61;96892.56;5083237;28;20028;-73
2022/08/10 09:58:49;;;;;;;4.45;1.45;;;;;;;30.52;26.76;96887.59;5075507;28;20143;-75
2022/08/10 10:01:28;;;;;;;2.63;1.30;;;;;;;30.56;26.70;96877.81;5088786;28;20473;-74
2022/08/10 10:04:21;;;;;;;3.30;1.33;;;;;;;30.34;25.77;96869.09;5080055;28;20040;-75
2022/08/10 10:07:04;;;;;;;3.38;1.30;;;;;;;28.22;28.19;96885.50;5083122;28;20040;-76
2022/08/10 10:09:47;;;;;;;3.50;1.48;;;;;;;28.82;27.35;96893.34;5082859;28;20080;-75
2022/08/10 10:12:49;;;;;;;3.75;1.17;;;;;;;28.23;28.67;96890.63;5086011;28;20437;-75
2022/08/10 10:15:32;;;;;;;2.95;1.30;;;;;;;28.78;29.47;96888.72;5070794;28;20441;-75
2022/08/10 10:18:12;;;;;;;;;;;;;;;28.59;29.13;96885.59;5070190;28;20028;-75
2022/08/10 10:20:50;;;;;;;6.35;1.50;;;;;;;29.48;27.92;96881.31;5085918;28;19920;-75
2022/08/10 10:23:53;;;;;;;3.22;1.20;;;;;;;29.26;28.40;96874.16;5089345;28;20034;-75
2022/08/10 10:26:37;;;;;;;;;;;;;;;28.74;27.24;96896.53;5081416;28;20020;-75
2022/08/10 10:29:06;;;;;;;6.47;1.33;;;;;;;29.90;25.16;96874.97;5086263;28;19926;-74
2022/08/10 10:31:43;;;;;;;3.72;1.17;;;;;;;27.76;27.75;96885.81;5092820;28;20099;-74
2022/08/10 10:34:34;;;;;;;2.97;1.42;;;;;;;27.55;28.34;96895.53;5091888;28;20039;-74
2022/08/10 10:37:01;;;;;;;5.25;1.33;;;;;;;28.92;25.86;96889.09;5087194;28;20067;-75
2022/08/10 10:39:29;;;;;;;3.28;1.08;;;;;;;29.83;25.23;96876.03;5084346;28;20035;-75
2022/08/10 10:42:21;;;;;;;4.43;1.40;;;;;;;28.82;26.26;96882.50;5083931;28;20036;-75
2022/08/10 10:45:05;;;;;;;2.03;1.50;;;;;;;28.55;26.62;96870.94;5081510;28;20035;-76
2022/08/10 10:47:58;;;;;;;6.93;1.25;;;;;;;29.26;26.45;96866.00;5084705;28;20028;-75
2022/08/10 10:50:33;;;;;;;5.95;1.40;;;;;;;29.54;26.52;96856.69;5079238;28;20315;-75
2022/08/10 10:53:04;;;;;;;2.38;1.17;;;;;;;28.45;26.77;96860.84;5087566;28;20044;-75
2022/08/10 10:55:47;;;;;;;4.95;1.20;;;;;;;28.08;27.35;96850.75;5083676;28;20028;-76
2022/08/10 10:58:27;;;;;;;4.80;1.23;;;;;;;27.96;28.05;96859.00;5102870;28;20489;-76
2022/08/10 11:01:02;;;;;;;5.50;1.25;;;;;;;28.79;26.49;96858.66;5084699;28;20427;-75
2022/08/10 11:03:46;;;;;;;4.60;1.20;;;;;;;29.02;26.30;96853.97;5088685;28;20063;-75
2022/08/10 11:06:32;;;;;;;4.07;1.33;;;;;;;29.22;26.03;96845.97;5086250;28;20058;-75
2022/08/10 11:09:07;;;;;;;2.13;1.10;;;;;;;29.21;26.19;96852.47;5085266;28;20542;-75
2022/08/10 11:11:42;;;;;;;5.03;1.33;;;;;;;29.52;25.58;96855.31;5061548;28;20055;-74
2022/08/10 11:14:15;;;;;;;1.52;1.08;;;;;;;30.02;25.17;96841.09;5086870;28;20024;-75
2022/08/10 11:17:07;;;;;;;2.50;1.45;;;;;;;29.51;26.23;96837.38;5087563;28;20028;-75
2022/08/10 11:19:33;;;;;;;5.55;1.33;;;;;;;29.51;25.80;96842.81;5087565;28;20704;-75
2022/08/10 11:21:59;;;;;;;3.40;1.40;;;;;;;30.70;24.23;96842.78;5082797;28;20073;-75
2022/08/10 11:24:57;;;;;;;5.35;1.85;;;;;;;30.95;25.16;96850.94;5082096;28;20056;-75
2022/08/10 11:27:38;;;;;;;3.88;1.20;;;;;;;29.68;25.82;96843.47;5087658;28;20567;-75
2022/08/10 11:30:11;;;;;;;2.15;1.27;;;;;;;29.93;24.50;96852.75;5086391;28;20024;-75
2022/08/10 11:33:00;;;;;;;3.35;1.50;;;;;;;29.95;24.61;96858.72;5085138;28;20739;-73
2022/08/10 11:35:34;;;;;;;3.22;1.15;;;;;;;30.45;23.91;96847.16;5084801;28;20172;-74
2022/08/10 11:37:59;;;;;;;4.20;1.30;;;;;;;30.83;23.86;96861.25;5088524;28;20683;-74
2022/08/10 11:40:34;;;;;;;4.40;1.38;;;;;;;30.26;23.74;96841.44;5070365;28;20039;-74
2022/08/10 11:43:09;;;;;;;2.28;0.95;;;;;;;29.67;24.48;96849.13;5083227;28;20487;-74
2022/08/10 11:45:38;;;;;;;3.60;1.73;;;;;;;29.10;24.94;96851.56;5086055;28;20028;-74
2022/08/10 11:48:24;;;;;;;4.75;2.05;;;;;;;30.44;23.67;96847.41;5087955;28;20036;-75
2022/08/10 11:50:57;;;;;;;1.60;1.20;;;;;;;28.73;25.29;96857.00;5087983;28;20075;-75
2022/08/10 11:53:41;;;;;;;3.03;1.38;;;;;;;28.96;25.37;96850.38;5082978;28;20059;-74
2022/08/10 11:56:11;;;;;;;4.93;1.63;;;;;;;28.15;26.06;96835.13;5083554;28;20086;-75
2022/08/10 12:01:30;;;;;;;2.38;1.45;;;;;;;29.01;25.61;96831.50;5086497;28;20485;-75